createdAt,value
2019-03-29T00:00:06.139Z,19.40
2019-03-29T00:01:05.794Z,20.40
2019-03-29T00:02:05.776Z,20.60
2019-03-29T00:03:05.764Z,21.00
2019-03-29T00:04:05.749Z,21.10
2019-03-29T00:05:05.770Z,23.10
2019-03-29T00:06:05.768Z,19.10
2019-03-29T00:07:05.728Z,23.90
2019-03-29T00:08:05.718Z,20.80
2019-03-29T00:09:05.697Z,18.80
2019-03-29T00:10:05.710Z,20.40
2019-03-29T00:11:05.689Z,19.40
2019-03-29T00:12:05.690Z,24.40
2019-03-29T00:13:05.665Z,21.00
2019-03-29T00:14:05.647Z,21.20
2019-03-29T00:15:05.700Z,20.10
2019-03-29T00:16:05.624Z,20.80
2019-03-29T00:17:05.613Z,20.90
2019-03-29T00:18:05.620Z,26.70
2019-03-29T00:19:05.599Z,21.10
2019-03-29T00:20:06.317Z,25.70
2019-03-29T00:21:05.599Z,24.30
2019-03-29T00:22:05.559Z,24.20
2019-03-29T00:23:05.556Z,24.70
2019-03-29T00:24:06.882Z,23.10
2019-03-29T00:25:06.377Z,24.80
2019-03-29T00:26:05.542Z,25.80
2019-03-29T00:27:05.511Z,22.20
2019-03-29T00:28:05.493Z,19.40
2019-03-29T00:29:05.478Z,21.20
2019-03-29T00:30:05.470Z,20.80
2019-03-29T00:31:05.467Z,25.50
2019-03-29T00:32:06.109Z,22.80
2019-03-29T00:33:05.440Z,23.00
2019-03-29T00:34:05.429Z,21.60
2019-03-29T00:35:05.424Z,25.40
2019-03-29T00:36:05.398Z,22.40
2019-03-29T00:37:05.419Z,23.00
2019-03-29T00:38:05.408Z,22.00
2019-03-29T00:39:05.376Z,23.20
2019-03-29T00:40:05.361Z,25.00
2019-03-29T00:41:05.351Z,24.10
2019-03-29T00:42:05.376Z,21.10
2019-03-29T00:43:05.331Z,22.70
2019-03-29T00:44:05.318Z,26.20
2019-03-29T00:45:05.322Z,23.00
2019-03-29T00:46:05.295Z,24.50
2019-03-29T00:47:05.277Z,21.20
2019-03-29T00:48:05.309Z,24.10
2019-03-29T00:49:05.271Z,25.20
2019-03-29T00:50:05.335Z,25.60
2019-03-29T00:51:05.251Z,23.30
2019-03-29T00:52:05.261Z,24.90
2019-03-29T00:53:05.219Z,22.10
2019-03-29T00:54:05.214Z,23.00
2019-03-29T00:55:05.223Z,25.30
2019-03-29T00:56:05.185Z,23.90
2019-03-29T00:57:05.249Z,23.30
2019-03-29T00:58:05.182Z,22.60
2019-03-29T00:59:05.147Z,28.20
2019-03-29T01:00:05.244Z,21.60
2019-03-29T01:01:05.171Z,24.40
2019-03-29T01:02:05.108Z,22.10
2019-03-29T01:03:05.115Z,26.50
2019-03-29T01:04:05.106Z,27.10
2019-03-29T01:05:05.103Z,21.10
2019-03-29T01:06:05.104Z,25.20
2019-03-29T01:07:05.231Z,22.30
2019-03-29T01:08:08.224Z,21.60
2019-03-29T01:09:06.090Z,23.20
2019-03-29T01:10:05.035Z,20.30
2019-03-29T01:11:05.017Z,24.90
2019-03-29T01:12:05.032Z,23.60
2019-03-29T01:13:04.997Z,23.50
2019-03-29T01:14:05.003Z,23.00
2019-03-29T01:15:04.998Z,22.90
2019-03-29T01:16:04.976Z,22.90
2019-03-29T01:17:04.969Z,22.00
2019-03-29T01:18:04.949Z,28.20
2019-03-29T01:19:04.960Z,23.30
2019-03-29T01:20:04.920Z,21.90
2019-03-29T01:21:04.937Z,20.50
2019-03-29T01:22:05.271Z,21.80
2019-03-29T01:23:04.897Z,23.20
2019-03-29T01:24:04.888Z,21.70
2019-03-29T01:25:04.862Z,23.70
2019-03-29T01:26:04.900Z,20.50
2019-03-29T01:27:04.858Z,19.60
2019-03-29T01:28:04.832Z,24.30
2019-03-29T01:29:04.963Z,19.60
2019-03-29T01:30:04.812Z,24.20
2019-03-29T01:31:04.793Z,23.30
2019-03-29T01:32:04.797Z,24.90
2019-03-29T01:33:04.774Z,22.00
2019-03-29T01:34:04.759Z,21.20
2019-03-29T01:35:04.759Z,21.50
2019-03-29T01:36:04.791Z,21.90
2019-03-29T01:37:04.754Z,20.50
2019-03-29T01:38:04.709Z,18.80
2019-03-29T01:39:04.714Z,23.60
2019-03-29T01:40:04.701Z,20.30
2019-03-29T01:41:04.704Z,18.80
2019-03-29T01:42:04.794Z,22.20
2019-03-29T01:43:04.663Z,19.70
2019-03-29T01:44:04.663Z,22.40
2019-03-29T01:45:04.641Z,23.40
2019-03-29T01:46:04.619Z,19.30
2019-03-29T01:47:04.657Z,20.50
2019-03-29T01:48:04.607Z,19.40
2019-03-29T01:49:04.604Z,20.30
2019-03-29T01:50:04.592Z,18.10
2019-03-29T01:51:04.570Z,22.10
2019-03-29T01:52:04.564Z,19.00
2019-03-29T01:53:04.585Z,15.60
2019-03-29T01:54:04.544Z,16.70
2019-03-29T01:55:04.530Z,17.40
2019-03-29T01:56:04.512Z,15.90
2019-03-29T01:57:04.505Z,19.70
2019-03-29T01:58:04.536Z,17.50
2019-03-29T01:59:04.493Z,17.10
2019-03-29T02:00:04.490Z,16.80
2019-03-29T02:01:04.469Z,17.30
2019-03-29T02:02:04.463Z,15.60
2019-03-29T02:03:04.452Z,15.70
2019-03-29T02:04:05.980Z,17.50
2019-03-29T02:05:04.413Z,17.00
2019-03-29T02:06:04.415Z,18.00
2019-03-29T02:07:04.403Z,17.40
2019-03-29T02:08:05.105Z,16.50
2019-03-29T02:09:05.087Z,15.80
2019-03-29T02:10:04.409Z,16.00
2019-03-29T02:11:04.368Z,16.10
2019-03-29T02:12:04.346Z,19.30
2019-03-29T02:13:04.365Z,13.40
2019-03-29T02:14:04.327Z,15.60
2019-03-29T02:15:04.341Z,15.20
2019-03-29T02:16:04.302Z,16.50
2019-03-29T02:17:04.284Z,16.10
2019-03-29T02:18:04.273Z,13.60
2019-03-29T02:19:04.273Z,15.80
2019-03-29T02:20:04.260Z,16.10
2019-03-29T02:21:04.265Z,16.50
2019-03-29T02:22:04.253Z,17.60
2019-03-29T02:23:04.391Z,15.90
2019-03-29T02:24:04.208Z,14.40
2019-03-29T02:25:04.208Z,18.10
2019-03-29T02:26:04.227Z,14.10
2019-03-29T02:27:04.175Z,16.40
2019-03-29T02:28:04.160Z,14.50
2019-03-29T02:29:04.151Z,18.20
2019-03-29T02:30:04.596Z,17.70
2019-03-29T02:31:04.140Z,19.90
2019-03-29T02:32:04.168Z,16.10
2019-03-29T02:33:04.146Z,20.10
2019-03-29T02:34:04.115Z,20.20
2019-03-29T02:35:04.083Z,19.40
2019-03-29T02:36:04.084Z,18.60
2019-03-29T02:37:04.097Z,20.00
2019-03-29T02:38:04.052Z,20.80
2019-03-29T02:39:04.050Z,21.80
2019-03-29T02:40:04.047Z,22.30
2019-03-29T02:41:04.023Z,21.50
2019-03-29T02:42:04.006Z,18.60
2019-03-29T02:43:04.016Z,21.50
2019-03-29T02:44:03.995Z,19.40
2019-03-29T02:45:03.995Z,22.10
2019-03-29T02:46:04.010Z,22.60
2019-03-29T02:47:03.959Z,22.30
2019-03-29T02:48:03.963Z,22.20
2019-03-29T02:49:03.959Z,21.30
2019-03-29T02:50:03.927Z,22.20
2019-03-29T02:51:04.885Z,25.60
2019-03-29T02:52:03.905Z,20.80
2019-03-29T02:53:04.128Z,27.40
2019-03-29T02:54:03.904Z,21.60
2019-03-29T02:55:03.881Z,25.20
2019-03-29T02:56:03.891Z,20.30
2019-03-29T02:57:03.858Z,22.40
2019-03-29T02:58:03.839Z,25.70
2019-03-29T02:59:03.831Z,25.00
2019-03-29T03:00:03.811Z,24.80
2019-03-29T03:01:03.819Z,24.60
2019-03-29T03:02:03.811Z,24.70
2019-03-29T03:03:03.776Z,23.20
2019-03-29T03:04:03.797Z,27.10
2019-03-29T03:05:03.758Z,25.30
2019-03-29T03:06:03.778Z,26.30
2019-03-29T03:07:03.801Z,25.00
2019-03-29T03:08:03.721Z,26.20
2019-03-29T03:09:12.951Z,26.20
2019-03-29T03:10:04.712Z,24.90
2019-03-29T03:11:03.697Z,25.60
2019-03-29T03:12:03.763Z,28.00
2019-03-29T03:13:03.659Z,24.90
2019-03-29T03:14:03.649Z,25.70
2019-03-29T03:15:03.658Z,26.00
2019-03-29T03:16:03.647Z,27.60
2019-03-29T03:17:03.635Z,29.50
2019-03-29T03:18:03.652Z,29.20
2019-03-29T03:19:03.594Z,31.10
2019-03-29T03:20:03.580Z,30.00
2019-03-29T03:21:03.586Z,32.10
2019-03-29T03:22:03.586Z,30.60
2019-03-29T03:23:03.578Z,28.50
2019-03-29T03:24:03.569Z,31.80
2019-03-29T03:25:03.549Z,32.20
2019-03-29T03:26:03.526Z,31.30
2019-03-29T03:27:03.506Z,30.50
2019-03-29T03:28:03.568Z,30.40
2019-03-29T03:29:03.530Z,31.70
2019-03-29T03:30:03.480Z,33.70
2019-03-29T03:31:03.467Z,32.40
2019-03-29T03:32:03.505Z,36.90
2019-03-29T03:33:03.454Z,35.90
2019-03-29T03:34:03.475Z,34.50
2019-03-29T03:35:03.480Z,34.50
2019-03-29T03:36:03.420Z,34.90
2019-03-29T03:37:03.445Z,37.80
2019-03-29T03:38:03.436Z,33.30
2019-03-29T03:39:03.382Z,36.80
2019-03-29T03:40:03.365Z,38.90
2019-03-29T03:41:03.355Z,33.80
2019-03-29T03:42:03.375Z,35.40
2019-03-29T03:43:03.338Z,34.90
2019-03-29T03:44:03.330Z,38.40
2019-03-29T03:45:03.325Z,31.50
2019-03-29T03:46:03.305Z,39.00
2019-03-29T03:47:03.294Z,37.30
2019-03-29T03:48:03.320Z,38.00
2019-03-29T03:49:03.275Z,38.40
2019-03-29T03:50:03.272Z,34.50
2019-03-29T03:51:03.241Z,44.10
2019-03-29T03:52:03.222Z,37.50
2019-03-29T03:53:03.219Z,35.50
2019-03-29T03:54:03.236Z,34.20
2019-03-29T03:55:03.207Z,38.50
2019-03-29T03:56:03.189Z,37.80
2019-03-29T03:57:03.189Z,37.40
2019-03-29T03:58:03.217Z,33.60
2019-03-29T03:59:03.169Z,36.10
2019-03-29T04:00:03.152Z,34.60
2019-03-29T04:01:03.164Z,32.80
2019-03-29T04:02:03.243Z,36.10
2019-03-29T04:03:03.124Z,36.80
2019-03-29T04:04:03.110Z,36.60
2019-03-29T04:05:03.087Z,38.40
2019-03-29T04:06:03.095Z,37.60
2019-03-29T04:07:03.081Z,40.20
2019-03-29T04:08:03.052Z,34.40
2019-03-29T04:09:03.087Z,38.90
2019-03-29T04:10:03.046Z,37.80
2019-03-29T04:11:03.093Z,35.70
2019-03-29T04:12:03.006Z,33.10
2019-03-29T04:13:02.999Z,32.80
2019-03-29T04:14:03.037Z,34.50
2019-03-29T04:15:02.998Z,41.20
2019-03-29T04:16:02.967Z,36.30
2019-03-29T04:17:02.977Z,35.90
2019-03-29T04:18:02.937Z,39.30
2019-03-29T04:19:03.067Z,34.80
2019-03-29T04:20:02.949Z,36.50
2019-03-29T04:21:02.938Z,35.60
2019-03-29T04:22:02.911Z,35.20
2019-03-29T04:23:02.907Z,40.80
2019-03-29T04:24:02.886Z,36.60
2019-03-29T04:25:02.880Z,35.40
2019-03-29T04:26:02.855Z,37.40
2019-03-29T04:27:02.851Z,36.40
2019-03-29T04:28:02.833Z,39.20
2019-03-29T04:29:04.554Z,33.00
2019-03-29T04:30:02.849Z,38.10
2019-03-29T04:31:02.796Z,39.50
2019-03-29T04:32:02.784Z,40.70
2019-03-29T04:33:02.805Z,36.40
2019-03-29T04:34:02.795Z,36.80
2019-03-29T04:35:02.788Z,35.50
2019-03-29T04:36:02.773Z,36.40
2019-03-29T04:37:02.759Z,32.00
2019-03-29T04:38:02.723Z,33.40
2019-03-29T04:39:02.718Z,35.60
2019-03-29T04:40:07.771Z,34.00
2019-03-29T04:41:03.704Z,37.30
2019-03-29T04:42:02.684Z,31.30
2019-03-29T04:43:02.677Z,37.80
2019-03-29T04:44:02.689Z,34.80
2019-03-29T04:45:02.649Z,31.90
2019-03-29T04:46:02.653Z,33.50
2019-03-29T04:47:02.656Z,34.90
2019-03-29T04:48:02.625Z,35.80
2019-03-29T04:49:02.603Z,33.80
2019-03-29T04:50:02.590Z,34.90
2019-03-29T04:51:02.609Z,35.70
2019-03-29T04:52:02.571Z,31.00
2019-03-29T04:53:02.560Z,35.80
2019-03-29T04:54:02.547Z,36.50
2019-03-29T04:55:02.529Z,36.10
2019-03-29T04:56:02.544Z,35.00
2019-03-29T04:57:02.520Z,41.80
2019-03-29T04:58:02.496Z,36.80
2019-03-29T04:59:02.489Z,32.90
2019-03-29T05:00:02.491Z,30.20
2019-03-29T05:01:02.502Z,32.70
2019-03-29T05:02:02.461Z,39.30
2019-03-29T05:03:02.489Z,32.80
2019-03-29T05:04:02.432Z,32.90
2019-03-29T05:05:02.436Z,31.50
2019-03-29T05:06:02.446Z,30.30
2019-03-29T05:07:02.394Z,37.90
2019-03-29T05:08:02.393Z,36.80
2019-03-29T05:09:02.372Z,37.80
2019-03-29T05:10:02.396Z,34.60
2019-03-29T05:11:02.363Z,33.40
2019-03-29T05:12:02.388Z,32.50
2019-03-29T05:13:02.344Z,34.50
2019-03-29T05:14:02.328Z,42.80
2019-03-29T05:15:02.393Z,40.90
2019-03-29T05:16:02.293Z,36.60
2019-03-29T05:17:02.349Z,42.40
2019-03-29T05:18:02.297Z,36.20
2019-03-29T05:19:02.277Z,42.80
2019-03-29T05:20:02.262Z,38.60
2019-03-29T05:21:02.239Z,34.40
2019-03-29T05:22:02.276Z,36.10
2019-03-29T05:23:02.276Z,38.30
2019-03-29T05:24:02.307Z,38.90
2019-03-29T05:25:02.207Z,35.70
2019-03-29T05:26:02.219Z,38.60
2019-03-29T05:27:02.173Z,39.80
2019-03-29T05:28:02.179Z,36.40
2019-03-29T05:29:02.153Z,40.30
2019-03-29T05:30:02.143Z,42.30
2019-03-29T05:31:02.144Z,40.30
2019-03-29T05:32:02.153Z,37.20
2019-03-29T05:33:02.159Z,38.50
2019-03-29T05:34:02.123Z,35.00
2019-03-29T05:35:02.094Z,40.70
2019-03-29T05:36:02.075Z,39.50
2019-03-29T05:37:02.075Z,40.30
2019-03-29T05:38:02.079Z,40.20
2019-03-29T05:39:02.132Z,35.60
2019-03-29T05:40:02.030Z,40.80
2019-03-29T05:41:02.036Z,35.30
2019-03-29T05:42:02.006Z,40.00
2019-03-29T05:43:02.057Z,37.80
2019-03-29T05:44:02.001Z,39.50
2019-03-29T05:45:01.986Z,36.30
2019-03-29T05:46:01.991Z,37.40
2019-03-29T05:47:01.956Z,39.00
2019-03-29T05:48:01.981Z,40.20
2019-03-29T05:49:01.958Z,36.30
2019-03-29T05:50:01.924Z,38.90
2019-03-29T05:51:01.913Z,38.60
2019-03-29T05:52:01.918Z,34.60
2019-03-29T05:53:01.899Z,38.20
2019-03-29T05:54:01.903Z,37.80
2019-03-29T05:55:01.872Z,38.60
2019-03-29T05:56:01.973Z,38.80
2019-03-29T05:57:01.878Z,37.40
2019-03-29T05:58:01.838Z,37.60
2019-03-29T05:59:01.817Z,34.60
2019-03-29T06:00:01.829Z,41.80
2019-03-29T06:01:01.796Z,35.80
2019-03-29T06:02:01.804Z,41.00
2019-03-29T06:03:01.785Z,35.70
2019-03-29T06:04:01.930Z,40.30
2019-03-29T06:05:02.006Z,40.40
2019-03-29T06:06:01.779Z,36.60
2019-03-29T06:07:01.732Z,41.00
2019-03-29T06:08:01.757Z,38.00
2019-03-29T06:09:01.722Z,38.50
2019-03-29T06:10:01.738Z,38.20
2019-03-29T06:11:01.689Z,36.90
2019-03-29T06:12:01.689Z,38.00
2019-03-29T06:13:01.678Z,38.90
2019-03-29T06:14:01.659Z,38.00
2019-03-29T06:15:01.707Z,39.20
2019-03-29T06:16:01.646Z,37.90
2019-03-29T06:17:01.629Z,35.40
2019-03-29T06:18:01.626Z,41.40
2019-03-29T06:19:01.620Z,37.90
2019-03-29T06:20:01.588Z,41.70
2019-03-29T06:21:01.589Z,35.80
2019-03-29T06:22:01.593Z,37.30
2019-03-29T06:23:01.563Z,36.50
2019-03-29T06:24:01.547Z,40.80
2019-03-29T06:25:01.535Z,52.20
2019-03-29T06:26:01.575Z,51.80
2019-03-29T06:27:01.531Z,41.80
2019-03-29T06:28:01.516Z,42.70
2019-03-29T06:29:01.495Z,49.30
2019-03-29T06:30:01.506Z,42.20
2019-03-29T06:31:01.466Z,37.90
2019-03-29T06:32:01.496Z,39.40
2019-03-29T06:33:01.471Z,42.10
2019-03-29T06:34:01.438Z,39.90
2019-03-29T06:35:01.432Z,38.10
2019-03-29T06:36:01.421Z,36.40
2019-03-29T06:37:01.433Z,39.20
2019-03-29T06:38:01.395Z,41.40
2019-03-29T06:39:01.377Z,42.60
2019-03-29T06:40:01.368Z,53.70
2019-03-29T06:41:03.386Z,55.80
2019-03-29T06:42:01.389Z,47.30
2019-03-29T06:43:01.336Z,43.20
2019-03-29T06:44:01.315Z,42.60
2019-03-29T06:45:01.327Z,40.70
2019-03-29T06:46:01.298Z,38.50
2019-03-29T06:47:01.343Z,37.00
2019-03-29T06:48:01.295Z,37.30
2019-03-29T06:49:01.287Z,38.10
2019-03-29T06:50:01.269Z,39.20
2019-03-29T06:51:01.251Z,38.60
2019-03-29T06:52:01.285Z,37.30
2019-03-29T06:53:01.227Z,39.70
2019-03-29T06:54:01.208Z,40.90
2019-03-29T06:55:01.244Z,38.00
2019-03-29T06:56:01.271Z,39.00
2019-03-29T06:57:01.209Z,38.60
2019-03-29T06:58:01.180Z,39.40
2019-03-29T06:59:01.168Z,40.50
2019-03-29T07:00:01.169Z,38.70
2019-03-29T07:01:01.144Z,35.40
2019-03-29T07:02:01.162Z,37.70
2019-03-29T07:03:01.122Z,34.80
2019-03-29T07:04:01.098Z,34.00
2019-03-29T07:05:01.116Z,38.90
2019-03-29T07:06:01.079Z,34.30
2019-03-29T07:07:01.126Z,39.50
2019-03-29T07:08:01.085Z,36.40
2019-03-29T07:09:01.064Z,36.30
2019-03-29T07:10:01.041Z,40.00
2019-03-29T07:11:01.033Z,36.30
2019-03-29T07:12:01.019Z,37.60
2019-03-29T07:13:01.038Z,41.50
2019-03-29T07:14:01.007Z,41.20
2019-03-29T07:15:00.980Z,37.80
2019-03-29T07:16:00.964Z,31.60
2019-03-29T07:17:01.097Z,34.30
2019-03-29T07:18:00.969Z,36.30
2019-03-29T07:19:00.948Z,34.10
2019-03-29T07:20:00.930Z,36.00
2019-03-29T07:21:00.929Z,39.50
2019-03-29T07:22:00.912Z,35.20
2019-03-29T07:23:00.912Z,32.70
2019-03-29T07:24:00.888Z,33.50
2019-03-29T07:25:00.883Z,37.70
2019-03-29T07:26:00.860Z,34.50
2019-03-29T07:27:00.859Z,34.10
2019-03-29T07:28:00.868Z,36.80
2019-03-29T07:29:00.846Z,34.60
2019-03-29T07:30:00.813Z,35.80
2019-03-29T07:31:00.836Z,34.90
2019-03-29T07:32:00.807Z,34.30
2019-03-29T07:33:00.797Z,33.70
2019-03-29T07:34:00.812Z,35.90
2019-03-29T07:35:00.764Z,34.70
2019-03-29T07:36:00.748Z,33.80
2019-03-29T07:37:00.735Z,31.40
2019-03-29T07:38:00.729Z,36.00
2019-03-29T07:39:00.733Z,34.90
2019-03-29T07:40:00.735Z,41.20
2019-03-29T07:41:00.727Z,36.00
2019-03-29T07:42:00.689Z,36.40
2019-03-29T07:43:00.700Z,36.90
2019-03-29T07:44:00.659Z,33.60
2019-03-29T07:45:00.685Z,35.90
2019-03-29T07:46:00.653Z,32.10
2019-03-29T07:47:00.625Z,36.20
2019-03-29T07:48:00.610Z,35.30
2019-03-29T07:49:00.632Z,39.10
2019-03-29T07:50:00.604Z,36.10
2019-03-29T07:51:00.596Z,36.00
2019-03-29T07:52:00.576Z,36.20
2019-03-29T07:53:00.582Z,35.10
2019-03-29T07:54:00.560Z,48.40
2019-03-29T07:55:00.555Z,45.40
2019-03-29T07:56:00.529Z,40.90
2019-03-29T07:57:00.533Z,43.30
2019-03-29T07:58:00.502Z,44.80
2019-03-29T07:59:00.509Z,40.30
2019-03-29T08:00:00.490Z,37.70
2019-03-29T08:01:00.498Z,32.40
2019-03-29T08:02:00.487Z,29.40
2019-03-29T08:03:00.479Z,33.90
2019-03-29T08:04:00.464Z,32.50
2019-03-29T08:05:00.564Z,33.40
2019-03-29T08:06:00.445Z,32.30
2019-03-29T08:07:00.451Z,31.10
2019-03-29T08:08:00.410Z,33.30
2019-03-29T08:09:01.062Z,29.30
2019-03-29T08:10:03.367Z,29.90
2019-03-29T08:11:00.386Z,30.90
2019-03-29T08:12:00.355Z,32.10
2019-03-29T08:13:00.358Z,31.80
2019-03-29T08:14:00.327Z,32.70
2019-03-29T08:15:00.352Z,31.20
2019-03-29T08:16:00.305Z,33.50
2019-03-29T08:17:00.316Z,35.70
2019-03-29T08:18:01.772Z,31.10
2019-03-29T08:19:00.279Z,38.20
2019-03-29T08:20:35.820Z,32.60
2019-03-29T08:21:01.249Z,35.00
2019-03-29T08:22:00.241Z,30.70
2019-03-29T08:23:00.272Z,31.40
2019-03-29T08:24:00.269Z,29.90
2019-03-29T08:25:00.288Z,29.80
2019-03-29T08:26:00.204Z,33.30
2019-03-29T08:27:00.205Z,39.80
2019-03-29T08:28:00.184Z,40.20
2019-03-29T08:29:00.156Z,33.60
2019-03-29T08:30:00.366Z,33.30
2019-03-29T08:31:00.145Z,29.70
2019-03-29T08:32:00.151Z,28.70
2019-03-29T08:33:00.146Z,29.40
2019-03-29T08:34:00.125Z,27.90
2019-03-29T08:35:00.306Z,30.20
2019-03-29T08:36:00.101Z,29.10
2019-03-29T08:37:00.081Z,30.30
2019-03-29T08:38:00.087Z,29.00
2019-03-29T08:39:00.068Z,26.70
2019-03-29T08:40:00.144Z,31.70
2019-03-29T08:41:00.027Z,27.70
2019-03-29T08:42:00.810Z,32.10
2019-03-29T08:43:00.018Z,29.20
2019-03-29T08:44:00.029Z,33.60
2019-03-29T08:44:59.990Z,31.00
2019-03-29T08:45:59.980Z,34.00
2019-03-29T08:46:59.958Z,26.50
2019-03-29T08:48:02.264Z,27.40
2019-03-29T08:48:59.955Z,29.70
2019-03-29T08:49:59.976Z,32.20
2019-03-29T08:50:59.923Z,31.70
2019-03-29T08:51:59.915Z,29.20
2019-03-29T08:52:59.896Z,25.30
2019-03-29T08:53:59.913Z,33.10
2019-03-29T08:54:59.896Z,29.40
2019-03-29T08:55:59.872Z,31.60
2019-03-29T08:56:59.867Z,29.80
2019-03-29T08:57:59.855Z,26.00
2019-03-29T08:58:59.867Z,29.50
2019-03-29T08:59:59.824Z,29.20
2019-03-29T09:00:59.825Z,27.80
2019-03-29T09:01:59.797Z,27.60
2019-03-29T09:02:59.877Z,27.20
2019-03-29T09:04:05.078Z,27.20
2019-03-29T09:05:00.788Z,27.90
2019-03-29T09:05:59.758Z,28.90
2019-03-29T09:06:59.747Z,27.80
2019-03-29T09:07:59.745Z,25.90
2019-03-29T09:08:59.726Z,29.80
2019-03-29T09:09:59.742Z,27.00
2019-03-29T09:10:59.706Z,26.80
2019-03-29T09:12:13.415Z,26.70
2019-03-29T09:13:04.080Z,27.70
2019-03-29T09:13:59.662Z,28.40
2019-03-29T09:15:03.274Z,23.50
2019-03-29T09:15:59.695Z,29.10
2019-03-29T09:16:59.648Z,24.30
2019-03-29T09:18:00.095Z,26.80
2019-03-29T09:18:59.614Z,25.80
2019-03-29T09:19:59.606Z,25.20
2019-03-29T09:20:59.633Z,21.80
2019-03-29T09:21:59.589Z,25.60
2019-03-29T09:22:59.574Z,24.70
2019-03-29T09:23:59.554Z,28.50
2019-03-29T09:24:59.611Z,25.50
2019-03-29T09:25:59.554Z,24.90
2019-03-29T09:26:59.563Z,26.90
2019-03-29T09:27:59.538Z,24.70
2019-03-29T09:28:59.515Z,25.70
2019-03-29T09:29:59.518Z,29.30
2019-03-29T09:30:59.481Z,27.50
2019-03-29T09:31:59.485Z,20.50
2019-03-29T09:32:59.482Z,24.50
2019-03-29T09:33:59.469Z,25.20
2019-03-29T09:34:59.462Z,24.80
2019-03-29T09:35:59.456Z,23.60
2019-03-29T09:37:00.352Z,22.80
2019-03-29T09:37:59.412Z,20.80
2019-03-29T09:38:59.430Z,22.90
2019-03-29T09:39:59.394Z,23.40
2019-03-29T09:40:59.488Z,23.50
2019-03-29T09:41:59.380Z,23.80
2019-03-29T09:43:07.253Z,30.10
2019-03-29T09:44:00.394Z,19.80
2019-03-29T09:44:59.340Z,19.60
2019-03-29T09:45:59.313Z,22.10
2019-03-29T09:46:59.319Z,23.10
2019-03-29T09:47:59.327Z,17.80
2019-03-29T09:48:59.298Z,20.90
2019-03-29T09:49:59.276Z,18.60
2019-03-29T09:50:59.277Z,16.20
2019-03-29T09:51:59.245Z,20.10
2019-03-29T09:53:01.268Z,17.20
2019-03-29T09:53:59.318Z,16.90
2019-03-29T09:54:59.237Z,17.50
2019-03-29T09:55:59.242Z,14.80
2019-03-29T09:56:59.200Z,19.30
2019-03-29T09:57:59.194Z,17.20
2019-03-29T09:58:59.180Z,19.20
2019-03-29T09:59:59.183Z,21.80
2019-03-29T10:00:59.162Z,16.70
2019-03-29T10:01:59.177Z,17.90
2019-03-29T10:02:59.129Z,16.20
2019-03-29T10:03:59.153Z,15.90
2019-03-29T10:04:59.109Z,15.10
2019-03-29T10:05:59.099Z,14.90
2019-03-29T10:06:59.093Z,24.30
2019-03-29T10:07:59.097Z,15.90
2019-03-29T10:08:59.088Z,16.80
2019-03-29T10:09:59.089Z,14.80
2019-03-29T10:10:59.080Z,15.90
2019-03-29T10:11:59.040Z,14.00
2019-03-29T10:12:59.031Z,14.10
2019-03-29T10:13:59.033Z,16.00
2019-03-29T10:14:59.018Z,14.60
2019-03-29T10:15:59.005Z,15.80
2019-03-29T10:16:59.585Z,17.80
2019-03-29T10:17:58.978Z,15.30
2019-03-29T10:18:58.994Z,14.40
2019-03-29T10:19:58.973Z,14.50
2019-03-29T10:20:58.952Z,17.70
2019-03-29T10:21:59.028Z,14.20
2019-03-29T10:22:58.915Z,15.10
2019-03-29T10:23:58.914Z,17.00
2019-03-29T10:25:01.844Z,16.50
2019-03-29T10:25:59.009Z,19.70
2019-03-29T10:26:58.875Z,15.90
2019-03-29T10:27:58.856Z,14.30
2019-03-29T10:28:58.845Z,13.20
2019-03-29T10:29:58.880Z,14.70
2019-03-29T10:30:58.838Z,14.10
2019-03-29T10:31:58.819Z,14.20
2019-03-29T10:32:58.812Z,14.60
2019-03-29T10:33:58.826Z,14.90
2019-03-29T10:34:58.772Z,13.60
2019-03-29T10:35:58.802Z,11.00
2019-03-29T10:36:58.772Z,11.00
2019-03-29T10:37:58.741Z,8.10
2019-03-29T10:38:58.743Z,8.90
2019-03-29T10:39:58.752Z,11.40
2019-03-29T10:40:58.720Z,13.50
2019-03-29T10:41:58.722Z,9.20
2019-03-29T10:42:58.719Z,10.90
2019-03-29T10:43:58.704Z,14.70
2019-03-29T10:44:58.707Z,9.10
2019-03-29T10:45:58.672Z,8.60
2019-03-29T10:46:58.679Z,9.20
2019-03-29T10:47:58.634Z,8.50
2019-03-29T10:48:58.622Z,8.90
2019-03-29T10:49:58.620Z,8.00
2019-03-29T10:50:58.629Z,9.20
2019-03-29T10:51:58.601Z,9.00
2019-03-29T10:52:58.610Z,9.00
2019-03-29T10:53:58.580Z,7.10
2019-03-29T10:54:58.556Z,7.80
2019-03-29T10:55:58.549Z,5.70
2019-03-29T10:56:58.558Z,12.50
2019-03-29T10:57:58.571Z,7.10
2019-03-29T10:58:58.553Z,6.80
2019-03-29T10:59:58.511Z,7.30
2019-03-29T11:00:59.474Z,5.40
2019-03-29T11:01:58.499Z,7.80
2019-03-29T11:02:58.473Z,5.70
2019-03-29T11:03:58.482Z,6.80
2019-03-29T11:04:58.462Z,6.20
2019-03-29T11:05:58.455Z,7.20
2019-03-29T11:06:58.453Z,5.50
2019-03-29T11:07:58.429Z,9.70
2019-03-29T11:08:58.436Z,7.80
2019-03-29T11:09:58.407Z,4.10
2019-03-29T11:10:58.391Z,3.60
2019-03-29T11:11:58.384Z,5.10
2019-03-29T11:13:11.890Z,4.00
2019-03-29T11:13:59.390Z,5.30
2019-03-29T11:14:58.348Z,6.10
2019-03-29T11:15:58.343Z,4.00
2019-03-29T11:16:58.332Z,2.90
2019-03-29T11:17:58.327Z,3.20
2019-03-29T11:18:58.291Z,4.40
2019-03-29T11:19:58.316Z,3.80
2019-03-29T11:20:58.276Z,4.10
2019-03-29T11:21:58.263Z,6.70
2019-03-29T11:22:58.273Z,3.20
2019-03-29T11:23:58.243Z,4.30
2019-03-29T11:24:58.248Z,4.00
2019-03-29T11:25:58.232Z,3.50
2019-03-29T11:26:58.197Z,5.10
2019-03-29T11:27:58.205Z,4.60
2019-03-29T11:28:58.188Z,3.20
2019-03-29T11:29:58.232Z,3.60
2019-03-29T11:30:58.169Z,4.30
2019-03-29T11:31:58.145Z,4.60
2019-03-29T11:32:58.156Z,5.60
2019-03-29T11:33:58.127Z,3.60
2019-03-29T11:34:58.134Z,3.40
2019-03-29T11:35:58.154Z,4.20
2019-03-29T11:36:58.097Z,5.50
2019-03-29T11:37:58.093Z,5.50
2019-03-29T11:38:58.080Z,3.90
2019-03-29T11:39:58.099Z,4.20
2019-03-29T11:40:58.051Z,4.50
2019-03-29T11:41:58.049Z,5.20
2019-03-29T11:42:58.039Z,5.10
2019-03-29T11:43:58.031Z,3.90
2019-03-29T11:44:58.005Z,6.40
2019-03-29T11:45:58.028Z,5.00
2019-03-29T11:46:57.991Z,4.60
2019-03-29T11:48:08.569Z,6.30
2019-03-29T11:48:58.988Z,4.60
2019-03-29T11:49:57.956Z,6.60
2019-03-29T11:50:57.967Z,5.10
2019-03-29T11:51:57.954Z,5.00
2019-03-29T11:52:57.917Z,5.80
2019-03-29T11:53:57.901Z,4.60
2019-03-29T11:54:57.903Z,6.50
2019-03-29T11:55:57.917Z,4.90
2019-03-29T11:56:57.902Z,8.90
2019-03-29T11:57:57.879Z,6.10
2019-03-29T11:58:57.859Z,5.70
2019-03-29T11:59:57.836Z,4.50
2019-03-29T12:00:57.845Z,5.80
2019-03-29T12:01:57.850Z,5.10
2019-03-29T12:02:57.801Z,8.70
2019-03-29T12:03:57.797Z,8.40
2019-03-29T12:04:57.781Z,5.30
2019-03-29T12:05:57.809Z,5.80
2019-03-29T12:06:57.808Z,4.00
2019-03-29T12:07:57.760Z,3.70
2019-03-29T12:08:57.760Z,5.50
2019-03-29T12:09:57.735Z,4.10
2019-03-29T12:10:57.730Z,5.20
2019-03-29T12:11:57.702Z,4.30
2019-03-29T12:12:57.708Z,3.80
2019-03-29T12:13:57.678Z,4.10
2019-03-29T12:14:57.685Z,5.10
2019-03-29T12:15:57.668Z,5.10
2019-03-29T12:16:57.669Z,7.80
2019-03-29T12:17:57.633Z,5.70
2019-03-29T12:18:57.643Z,4.40
2019-03-29T12:19:57.631Z,4.90
2019-03-29T12:20:57.629Z,4.30
2019-03-29T12:21:57.611Z,6.60
2019-03-29T12:22:57.596Z,5.60
2019-03-29T12:23:57.566Z,6.80
2019-03-29T12:24:57.578Z,4.30
2019-03-29T12:25:57.554Z,8.70
2019-03-29T12:26:57.540Z,6.00
2019-03-29T12:27:57.552Z,7.40
2019-03-29T12:28:57.520Z,5.40
2019-03-29T12:29:57.504Z,4.40
2019-03-29T12:30:57.506Z,4.50
2019-03-29T12:31:57.495Z,5.60
2019-03-29T12:32:57.469Z,4.70
2019-03-29T12:33:57.483Z,5.90
2019-03-29T12:34:57.459Z,4.70
2019-03-29T12:35:57.445Z,6.20
2019-03-29T12:36:57.435Z,5.20
2019-03-29T12:37:57.430Z,6.10
2019-03-29T12:38:57.435Z,5.40
2019-03-29T12:39:57.405Z,6.00
2019-03-29T12:40:57.383Z,5.40
2019-03-29T12:41:57.390Z,4.70
2019-03-29T12:42:57.374Z,4.60
2019-03-29T12:43:57.362Z,7.20
2019-03-29T12:44:57.375Z,3.50
2019-03-29T12:45:57.343Z,4.30
2019-03-29T12:46:57.320Z,5.10
2019-03-29T12:47:57.304Z,6.00
2019-03-29T12:48:57.308Z,7.80
2019-03-29T12:49:57.302Z,6.70
2019-03-29T12:50:57.287Z,5.10
2019-03-29T12:51:57.257Z,4.30
2019-03-29T12:52:57.252Z,4.90
2019-03-29T12:53:57.246Z,4.90
2019-03-29T12:54:57.239Z,5.10
2019-03-29T12:55:58.137Z,6.00
2019-03-29T12:56:57.212Z,5.10